Time;durP1;ratioP1;P1;durP2;ratioP2;P2;SDS_P1;SDS_P2;PMS_P1;PMS_P2;Temp;Humidity;BMP_temperature;BMP_pressure;BME280_temperature;BME280_humidity;BME280_pressure;Samples;Min_cycle;Max_cycle;Signal;HPM_P1;HPM_P2
2020/12/14 00:00:47;;;;;;;46.38;22.00;;;4.90;99.90;;;;;;4994128;28;20397;-80
2020/12/14 00:03:15;;;;;;;40.00;18.63;;;4.90;99.90;;;;;;5003255;28;20614;-81
2020/12/14 00:05:42;;;;;;;46.38;18.33;;;4.90;99.90;;;;;;5003167;28;20202;-82
2020/12/14 00:08:09;;;;;;;46.45;20.20;;;4.90;99.90;;;;;;5003817;28;20197;-81
2020/12/14 00:10:40;;;;;;;44.63;18.73;;;4.90;99.90;;;;;;5001981;28;20314;-79
2020/12/14 00:13:07;;;;;;;47.28;18.70;;;4.90;99.90;;;;;;5002503;28;20198;-81
2020/12/14 00:15:34;;;;;;;34.67;17.70;;;4.90;99.90;;;;;;4984560;28;20209;-82
2020/12/14 00:18:02;;;;;;;36.83;14.73;;;4.90;99.90;;;;;;5002407;28;20255;-79
2020/12/14 00:20:30;;;;;;;44.00;20.13;;;4.90;99.90;;;;;;5001030;28;20207;-81
2020/12/14 00:22:58;;;;;;;44.00;20.85;;;4.90;99.90;;;;;;4984145;28;20206;-80
2020/12/14 00:25:25;;;;;;;31.60;18.10;;;4.90;99.90;;;;;;5002132;28;20286;-80
2020/12/14 00:27:52;;;;;;;43.63;18.35;;;5.00;99.90;;;;;;5002709;28;20195;-82
2020/12/14 00:30:19;;;;;;;43.40;21.55;;;5.00;99.90;;;;;;5010980;28;20210;-80
2020/12/14 00:32:47;;;;;;;63.60;18.67;;;5.10;99.90;;;;;;5004424;28;20194;-81
2020/12/14 00:35:15;;;;;;;49.90;22.55;;;5.10;99.90;;;;;;5004588;28;20189;-80
2020/12/14 00:37:43;;;;;;;52.65;22.17;;;5.10;99.90;;;;;;5004632;28;20186;-79
2020/12/14 00:40:10;;;;;;;49.33;20.70;;;5.10;99.90;;;;;;5007563;28;20206;-80
2020/12/14 00:42:42;;;;;;;50.85;19.45;;;5.10;99.90;;;;;;5012768;28;20194;-80
2020/12/14 00:45:09;;;;;;;47.60;20.90;;;5.10;99.90;;;;;;5010033;28;20199;-78
2020/12/14 00:47:36;;;;;;;38.67;18.30;;;5.10;99.90;;;;;;5001545;28;20214;-81
2020/12/14 00:50:05;;;;;;;36.22;19.30;;;5.20;99.90;;;;;;4999915;28;20211;-81
2020/12/14 00:52:33;;;;;;;35.50;20.17;;;5.20;99.90;;;;;;5000186;28;20191;-81
2020/12/14 00:55:00;;;;;;;51.33;23.95;;;5.20;99.90;;;;;;4982291;28;20183;-80
2020/12/14 00:57:28;;;;;;;58.38;19.40;;;5.30;99.90;;;;;;4998879;28;20190;-80
2020/12/14 00:59:57;;;;;;;47.30;21.25;;;5.20;99.90;;;;;;4999969;28;20215;-79
2020/12/14 01:02:24;;;;;;;47.47;19.02;;;5.30;99.90;;;;;;5000433;28;20665;-80
2020/12/14 01:04:52;;;;;;;52.03;17.33;;;5.30;99.90;;;;;;4998022;28;20294;-79
2020/12/14 01:07:19;;;;;;;57.22;22.38;;;5.20;99.90;;;;;;4980834;28;20187;-79
2020/12/14 01:09:47;;;;;;;44.70;21.55;;;5.30;99.90;;;;;;4997385;28;20300;-80
2020/12/14 01:12:15;;;;;;;39.42;18.52;;;5.30;99.90;;;;;;4997974;28;20648;-80
2020/12/14 01:14:43;;;;;;;56.50;19.75;;;5.30;99.90;;;;;;4997831;28;20198;-79
2020/12/14 01:17:10;;;;;;;43.95;20.15;;;5.30;99.90;;;;;;4997134;28;20179;-80
2020/12/14 01:19:38;;;;;;;37.13;20.02;;;5.40;99.90;;;;;;4997225;28;20197;-79
2020/12/14 01:22:05;;;;;;;37.10;19.15;;;5.30;99.90;;;;;;4997718;28;20658;-79
2020/12/14 01:24:32;;;;;;;34.88;18.10;;;5.30;99.90;;;;;;4997574;28;20183;-80
2020/12/14 01:27:01;;;;;;;36.42;21.35;;;5.40;99.90;;;;;;4979483;28;20677;-81
2020/12/14 01:29:28;;;;;;;50.28;18.08;;;5.40;99.90;;;;;;4996411;28;20174;-78
2020/12/14 01:31:55;;;;;;;40.80;20.92;;;5.50;99.90;;;;;;4996218;28;20555;-78
2020/12/14 01:34:22;;;;;;;51.97;20.80;;;5.50;99.90;;;;;;4996037;28;20721;-79
2020/12/14 01:36:50;;;;;;;48.03;19.88;;;5.50;99.90;;;;;;4996485;28;20175;-80
2020/12/14 01:39:17;;;;;;;33.85;17.85;;;5.60;99.90;;;;;;4996272;28;20190;-80
2020/12/14 01:41:45;;;;;;;30.98;17.35;;;5.60;99.90;;;;;;4995795;28;20210;-79
2020/12/14 01:44:13;;;;;;;39.17;19.80;;;5.50;99.90;;;;;;4995735;28;20191;-80
2020/12/14 01:46:43;;;;;;;33.35;18.63;;;5.50;99.90;;;;;;4995925;28;20254;-80
2020/12/14 01:49:11;;;;;;;47.28;19.60;;;5.50;99.90;;;;;;4978215;28;20187;-80
2020/12/14 01:51:39;;;;;;;41.78;17.35;;;5.50;99.90;;;;;;4995076;28;20214;-78
2020/12/14 01:54:14;;;;;;;46.70;18.55;;;5.50;99.90;;;;;;4994079;28;20748;-80
2020/12/14 01:56:41;;;;;;;59.10;20.15;;;5.50;99.90;;;;;;4995094;28;20541;-80
2020/12/14 01:59:09;;;;;;;36.80;18.90;;;5.50;99.90;;;;;;4995530;28;20191;-80
2020/12/14 02:01:37;;;;;;;38.45;16.85;;;5.50;99.90;;;;;;4995657;28;20221;-80
2020/12/14 02:04:05;;;;;;;37.75;16.40;;;5.50;99.90;;;;;;5003111;28;20237;-79
2020/12/14 02:06:32;;;;;;;43.40;14.70;;;5.50;99.90;;;;;;5004985;28;20757;-79
2020/12/14 02:08:59;;;;;;;28.52;17.70;;;5.40;99.90;;;;;;5005224;28;20190;-79
2020/12/14 02:11:26;;;;;;;36.85;15.43;;;5.40;99.90;;;;;;5007055;28;20210;-79
2020/12/14 02:13:53;;;;;;;41.10;17.80;;;5.30;99.90;;;;;;5011302;28;20197;-79
2020/12/14 02:16:21;;;;;;;28.63;14.77;;;5.30;99.90;;;;;;5012650;28;20183;-79
2020/12/14 02:18:50;;;;;;;28.92;15.70;;;5.20;99.90;;;;;;5012524;28;20190;-79
2020/12/14 02:21:17;;;;;;;32.10;16.58;;;5.10;99.90;;;;;;5013354;28;20241;-79
2020/12/14 02:23:45;;;;;;;33.30;15.80;;;5.10;99.90;;;;;;5014751;28;20218;-79
2020/12/14 02:26:13;;;;;;;24.58;13.60;;;5.10;99.90;;;;;;5015504;28;20211;-79
2020/12/14 02:28:40;;;;;;;27.80;13.40;;;5.00;99.90;;;;;;5014691;28;20198;-79
2020/12/14 02:31:07;;;;;;;24.77;12.93;;;5.10;99.90;;;;;;5015538;28;20198;-80
2020/12/14 02:33:35;;;;;;;17.90;10.98;;;5.10;99.90;;;;;;5013869;28;20187;-79
2020/12/14 02:36:02;;;;;;;25.25;13.07;;;5.10;99.90;;;;;;5013637;28;20226;-79
2020/12/14 02:38:29;;;;;;;29.88;16.90;;;5.20;99.90;;;;;;5017853;28;20238;-79
2020/12/14 02:40:56;;;;;;;17.98;12.23;;;5.20;99.90;;;;;;5005023;28;20642;-80
2020/12/14 02:43:24;;;;;;;28.75;16.83;;;5.20;99.90;;;;;;4984799;28;20213;-80
2020/12/14 02:45:51;;;;;;;29.45;13.07;;;5.10;99.90;;;;;;5001262;28;20195;-80
2020/12/14 02:48:22;;;;;;;25.58;14.35;;;5.20;99.90;;;;;;5002027;28;20573;-79
2020/12/14 02:50:49;;;;;;;22.63;12.70;;;5.20;99.90;;;;;;5002131;28;20207;-80
2020/12/14 02:53:17;;;;;;;27.35;12.93;;;5.30;99.90;;;;;;5001421;28;20250;-79
2020/12/14 02:55:44;;;;;;;25.23;13.95;;;5.30;99.90;;;;;;5000727;28;20179;-79
2020/12/14 02:58:11;;;;;;;16.10;11.25;;;5.30;99.90;;;;;;5000006;28;20190;-78
2020/12/14 03:00:39;;;;;;;23.10;12.23;;;5.30;99.90;;;;;;5003825;28;20232;-80
2020/12/14 03:03:07;;;;;;;28.25;13.65;;;5.20;99.90;;;;;;5007850;28;20218;-79
2020/12/14 03:05:34;;;;;;;25.65;14.80;;;5.30;99.90;;;;;;5014830;28;20195;-80
2020/12/14 03:08:02;;;;;;;29.92;13.57;;;5.20;99.90;;;;;;5012340;28;20186;-79
2020/12/14 03:10:29;;;;;;;32.75;13.60;;;5.30;99.90;;;;;;5030648;23;20402;-52
2020/12/14 03:12:57;;;;;;;21.02;13.68;;;5.30;99.90;;;;;;5000911;28;20190;-56
2020/12/14 03:15:24;;;;;;;27.13;14.02;;;5.30;99.90;;;;;;5018196;28;20206;-49
2020/12/14 03:17:52;;;;;;;27.38;14.02;;;5.30;99.90;;;;;;5017899;28;20436;-53
2020/12/14 03:20:19;;;;;;;22.30;12.80;;;5.30;99.90;;;;;;5018027;28;20567;-54
2020/12/14 03:22:46;;;;;;;22.33;11.55;;;5.30;99.90;;;;;;5017901;28;20194;-54
2020/12/14 03:25:13;;;;;;;27.45;14.40;;;5.30;99.90;;;;;;5017718;28;20417;-51
2020/12/14 03:27:40;;;;;;;24.05;15.02;;;5.20;99.90;;;;;;5017940;28;20234;-51
2020/12/14 03:30:08;;;;;;;14.45;9.85;;;5.30;99.90;;;;;;5017635;28;20197;-55
2020/12/14 03:32:35;;;;;;;30.38;12.90;;;5.40;99.90;;;;;;5017944;28;20186;-53
2020/12/14 03:35:03;;;;;;;22.67;11.98;;;5.50;99.90;;;;;;5017698;28;20209;-54
2020/12/14 03:37:30;;;;;;;20.52;11.02;;;5.50;99.90;;;;;;5017610;28;20212;-53
2020/12/14 03:39:57;;;;;;;26.95;14.40;;;5.50;99.90;;;;;;5017727;28;20174;-51
2020/12/14 03:42:24;;;;;;;29.80;13.75;;;5.50;99.90;;;;;;5017950;28;20184;-58
2020/12/14 03:44:51;;;;;;;21.85;12.45;;;5.60;99.90;;;;;;5017754;28;20186;-53
2020/12/14 03:47:19;;;;;;;22.75;12.90;;;5.60;99.90;;;;;;5018063;28;20213;-51
2020/12/14 03:49:46;;;;;;;33.30;16.88;;;5.60;99.90;;;;;;5018144;28;20186;-54
2020/12/14 03:52:14;;;;;;;25.75;11.23;;;5.60;99.90;;;;;;5017773;28;20181;-51
2020/12/14 03:54:41;;;;;;;28.63;16.23;;;5.70;99.90;;;;;;5017646;28;20190;-54
2020/12/14 03:57:08;;;;;;;19.90;12.85;;;5.50;99.90;;;;;;5017462;28;20175;-50
2020/12/14 03:59:35;;;;;;;23.65;13.25;;;5.50;99.90;;;;;;5017504;28;20186;-50
2020/12/14 04:02:02;;;;;;;37.35;14.15;;;5.50;99.90;;;;;;5017539;28;20213;-51
2020/12/14 04:04:29;;;;;;;26.70;13.82;;;5.50;99.90;;;;;;5017752;28;20221;-52
2020/12/14 04:06:57;;;;;;;29.73;15.23;;;5.60;99.90;;;;;;5017127;28;20206;-53
2020/12/14 04:09:25;;;;;;;25.25;12.65;;;5.50;99.90;;;;;;5017478;28;20194;-52
2020/12/14 04:11:52;;;;;;;21.13;11.90;;;5.60;99.90;;;;;;5017548;28;20193;-52
2020/12/14 04:14:22;;;;;;;23.08;12.63;;;5.60;99.90;;;;;;5017310;28;20237;-52
2020/12/14 04:16:51;;;;;;;19.40;14.15;;;5.60;99.90;;;;;;5013971;28;20300;-52
2020/12/14 04:19:22;;;;;;;30.33;15.07;;;5.70;99.90;;;;;;5014310;28;20186;-53
2020/12/14 04:21:51;;;;;;;27.40;14.15;;;5.60;99.90;;;;;;5014782;28;20182;-50
2020/12/14 04:24:18;;;;;;;26.40;14.93;;;5.50;99.90;;;;;;5014551;28;20264;-51
2020/12/14 04:26:51;;;;;;;22.65;13.55;;;5.50;99.90;;;;;;5014581;28;20218;-55
2020/12/14 04:29:19;;;;;;;28.10;14.80;;;5.60;99.90;;;;;;5014204;28;20174;-49
2020/12/14 04:31:46;;;;;;;26.23;14.70;;;5.60;99.90;;;;;;5013937;28;20177;-53
2020/12/14 04:34:14;;;;;;;27.83;13.50;;;5.60;99.90;;;;;;5013852;28;20209;-53
2020/12/14 04:36:44;;;;;;;25.75;13.15;;;5.50;99.90;;;;;;5013584;28;20206;-49
2020/12/14 04:39:11;;;;;;;21.77;14.20;;;5.50;99.90;;;;;;5014131;28;20170;-45
2020/12/14 04:41:38;;;;;;;29.02;14.00;;;5.50;99.90;;;;;;5014327;28;20174;-48
2020/12/14 04:44:08;;;;;;;34.33;11.45;;;5.40;99.90;;;;;;5014243;28;20193;-47
2020/12/14 04:46:36;;;;;;;24.95;13.13;;;5.40;99.90;;;;;;5013870;28;20222;-47
2020/12/14 04:49:04;;;;;;;26.88;12.93;;;5.40;99.90;;;;;;5013977;28;20640;-50
2020/12/14 04:51:32;;;;;;;22.10;14.93;;;5.40;99.90;;;;;;5013954;28;20256;-45
2020/12/14 04:54:01;;;;;;;18.30;11.73;;;5.50;99.90;;;;;;5014025;28;20186;-48
2020/12/14 04:56:29;;;;;;;17.63;11.35;;;5.40;99.90;;;;;;5014000;28;20359;-47
2020/12/14 04:58:58;;;;;;;19.00;11.82;;;5.30;99.90;;;;;;5013716;28;20198;-49
2020/12/14 05:01:25;;;;;;;27.60;15.18;;;5.30;99.90;;;;;;5013872;28;20178;-51
2020/12/14 05:03:54;;;;;;;20.45;11.45;;;5.30;99.90;;;;;;5016051;28;20179;-46
2020/12/14 05:06:22;;;;;;;23.33;11.95;;;5.30;99.90;;;;;;5016131;28;20214;-48
2020/12/14 05:08:49;;;;;;;22.98;10.82;;;5.30;99.90;;;;;;5014472;28;20190;-49
2020/12/14 05:11:33;;;;;;;24.40;14.43;;;5.20;99.90;;;;;;5014015;28;20201;-46
2020/12/14 05:14:17;;;;;;;19.88;12.05;;;5.20;99.90;;;;;;5013864;28;20515;-49
2020/12/14 05:16:45;;;;;;;16.42;10.93;;;5.20;99.90;;;;;;5014155;28;20205;-44
2020/12/14 05:19:24;;;;;;;24.58;11.00;;;5.20;99.90;;;;;;5014145;28;20667;-47
2020/12/14 05:21:54;;;;;;;24.13;10.77;;;5.20;99.90;;;;;;5014386;28;20185;-57
2020/12/14 05:24:26;;;;;;;19.27;10.20;;;5.10;99.90;;;;;;5014175;28;20277;-49
2020/12/14 05:26:55;;;;;;;19.98;12.50;;;5.10;99.90;;;;;;5013813;28;20279;-50
2020/12/14 05:29:26;;;;;;;16.27;10.45;;;5.10;99.90;;;;;;5013743;28;20518;-46
2020/12/14 05:32:02;;;;;;;19.45;10.52;;;5.10;99.90;;;;;;5014063;28;20194;-54
2020/12/14 05:34:31;;;;;;;20.17;10.43;;;5.10;99.90;;;;;;5014287;28;20205;-53
2020/12/14 05:36:59;;;;;;;21.30;11.40;;;5.10;99.90;;;;;;5013085;28;20202;-48
2020/12/14 05:39:28;;;;;;;13.57;10.45;;;5.00;99.90;;;;;;5013372;28;20179;-46
2020/12/14 05:42:06;;;;;;;15.80;9.30;;;5.00;99.90;;;;;;5013371;28;20237;-47
2020/12/14 05:44:33;;;;;;;14.98;10.50;;;5.00;99.90;;;;;;5013490;28;20189;-52
2020/12/14 05:47:02;;;;;;;24.80;13.30;;;5.00;99.90;;;;;;5012704;28;20214;-53
2020/12/14 05:49:29;;;;;;;15.73;10.95;;;5.00;99.90;;;;;;4995409;28;20198;-46
2020/12/14 05:52:01;;;;;;;14.35;11.18;;;5.00;99.90;;;;;;5012798;28;20170;-51
2020/12/14 05:54:36;;;;;;;17.77;10.38;;;5.00;99.90;;;;;;5013257;28;20213;-51
2020/12/14 05:57:04;;;;;;;19.45;11.15;;;5.00;99.90;;;;;;5013314;28;20257;-45
2020/12/14 05:59:34;;;;;;;32.33;12.35;;;5.00;99.90;;;;;;5013492;28;20198;-48
2020/12/14 06:02:05;;;;;;;27.80;12.60;;;5.00;99.90;;;;;;5004967;28;20681;-46
2020/12/14 06:04:33;;;;;;;22.20;13.20;;;4.90;99.90;;;;;;4993789;28;20225;-51
2020/12/14 06:07:05;;;;;;;13.73;8.75;;;4.90;99.90;;;;;;4992925;28;20265;-52
2020/12/14 06:09:37;;;;;;;13.25;8.68;;;4.80;99.90;;;;;;4992671;28;20198;-49
2020/12/14 06:12:13;;;;;;;24.77;14.55;;;4.80;99.90;;;;;;4992827;28;20193;-46
2020/12/14 06:14:40;;;;;;;21.23;11.52;;;4.80;99.90;;;;;;4992875;28;20277;-47
2020/12/14 06:17:11;;;;;;;15.98;10.85;;;4.80;99.90;;;;;;4993037;28;20190;-58
2020/12/14 06:19:38;;;;;;;21.23;13.68;;;4.90;99.90;;;;;;4992664;28;20241;-47
2020/12/14 06:22:08;;;;;;;15.95;11.07;;;4.90;99.90;;;;;;4988321;28;20191;-52
2020/12/14 06:24:38;;;;;;;16.30;10.50;;;4.90;99.90;;;;;;5008291;28;20202;-53
2020/12/14 06:27:09;;;;;;;21.48;11.60;;;4.80;99.90;;;;;;4994154;28;20256;-56
2020/12/14 06:29:38;;;;;;;16.45;7.97;;;4.80;99.90;;;;;;4994803;28;20199;-49
2020/12/14 06:32:36;;;;;;;21.75;10.55;;;4.90;99.90;;;;;;4994184;28;20660;-55
2020/12/14 06:35:06;;;;;;;22.42;11.70;;;4.90;99.90;;;;;;4994301;28;20233;-53
2020/12/14 06:37:50;;;;;;;22.83;13.52;;;4.90;99.90;;;;;;4994311;28;20620;-46
2020/12/14 06:40:19;;;;;;;18.55;10.90;;;4.90;99.90;;;;;;4992104;28;20205;-48
2020/12/14 06:42:47;;;;;;;16.58;10.27;;;4.90;99.90;;;;;;4992827;28;20234;-46
2020/12/14 06:45:16;;;;;;;18.67;10.50;;;4.90;99.90;;;;;;4992274;28;20215;-52
2020/12/14 06:47:46;;;;;;;25.58;12.15;;;4.90;99.90;;;;;;4992457;28;20613;-53
2020/12/14 06:50:40;;;;;;;18.40;12.45;;;5.00;99.90;;;;;;4992401;28;20175;-47
2020/12/14 06:53:38;;;;;;;16.67;12.85;;;5.00;99.90;;;;;;4992528;28;20179;-48
2020/12/14 06:56:05;;;;;;;17.20;13.35;;;5.00;99.90;;;;;;4992390;28;20202;-46
2020/12/14 06:58:35;;;;;;;21.25;14.52;;;4.90;99.90;;;;;;4992034;28;20191;-51
2020/12/14 07:01:03;;;;;;;24.80;13.75;;;5.00;99.90;;;;;;4989606;28;20552;-53
2020/12/14 07:03:40;;;;;;;13.48;10.60;;;4.90;99.90;;;;;;4992150;28;20185;-50
2020/12/14 07:06:07;;;;;;;16.73;12.40;;;4.90;99.90;;;;;;4992159;28;20230;-51
2020/12/14 07:08:39;;;;;;;24.20;11.57;;;4.90;99.90;;;;;;4992472;28;20190;-52
2020/12/14 07:11:17;;;;;;;18.75;11.15;;;4.90;99.90;;;;;;4992268;28;20871;-54
2020/12/14 07:13:45;;;;;;;21.80;12.40;;;4.90;99.90;;;;;;5011950;28;20228;-52
2020/12/14 07:16:15;;;;;;;19.92;12.23;;;4.90;99.90;;;;;;5012064;28;20234;-56
2020/12/14 07:18:46;;;;;;;20.65;11.65;;;4.90;99.90;;;;;;5012304;28;20194;-57
2020/12/14 07:21:15;;;;;;;19.40;11.63;;;4.90;99.90;;;;;;5010118;28;20194;-52
2020/12/14 07:23:44;;;;;;;16.77;10.93;;;4.80;99.90;;;;;;4992128;28;20182;-48
2020/12/14 07:26:12;;;;;;;23.02;12.63;;;4.80;99.90;;;;;;4991980;28;20242;-51
2020/12/14 07:28:45;;;;;;;22.15;10.30;;;4.80;99.90;;;;;;4991968;28;20191;-49
2020/12/14 07:31:15;;;;;;;24.20;11.52;;;4.80;99.90;;;;;;4992200;28;20175;-48
2020/12/14 07:33:51;;;;;;;18.98;12.00;;;4.80;99.90;;;;;;4992031;28;20210;-48
2020/12/14 07:36:19;;;;;;;23.08;13.70;;;4.80;99.90;;;;;;4992121;28;20348;-47
2020/12/14 07:38:49;;;;;;;30.50;12.35;;;4.80;99.90;;;;;;4992001;28;20618;-47
2020/12/14 07:41:16;;;;;;;26.38;11.98;;;4.80;99.90;;;;;;4992313;28;20190;-52
2020/12/14 07:43:53;;;;;;;19.90;12.90;;;4.80;99.90;;;;;;4992022;28;20175;-49
2020/12/14 07:46:33;;;;;;;16.25;11.52;;;4.70;99.90;;;;;;4991700;28;20525;-47
2020/12/14 07:49:06;;;;;;;26.48;13.45;;;4.80;99.90;;;;;;4991984;28;20599;-45
2020/12/14 07:51:36;;;;;;;19.10;11.95;;;4.80;99.90;;;;;;4993642;28;20261;-47
2020/12/14 07:54:11;;;;;;;15.27;8.90;;;4.80;99.90;;;;;;4996016;28;20263;-51
2020/12/14 07:56:58;;;;;;;23.10;13.73;;;4.80;99.90;;;;;;4995834;28;20290;-47
2020/12/14 07:59:26;;;;;;;20.40;11.88;;;4.70;99.90;;;;;;4995099;28;20175;-48
2020/12/14 08:01:55;;;;;;;15.93;13.07;;;4.70;99.90;;;;;;4995319;28;20407;-48
2020/12/14 08:04:27;;;;;;;20.80;10.75;;;4.70;99.90;;;;;;4995455;28;20198;-49
2020/12/14 08:06:56;;;;;;;20.55;11.65;;;4.70;99.90;;;;;;4995333;28;20207;-46
2020/12/14 08:09:28;;;;;;;19.88;10.90;;;4.70;99.90;;;;;;4994904;28;20186;-47
2020/12/14 08:11:55;;;;;;;14.00;9.40;;;4.70;99.90;;;;;;4995127;28;20209;-48
2020/12/14 08:14:23;;;;;;;19.63;11.63;;;4.70;99.90;;;;;;4977555;28;20578;-47
2020/12/14 08:16:50;;;;;;;20.45;13.25;;;4.70;99.90;;;;;;4995692;28;20206;-48
2020/12/14 08:19:19;;;;;;;17.77;10.20;;;4.70;99.90;;;;;;4995253;28;20202;-47
2020/12/14 08:22:05;;;;;;;26.35;10.82;;;4.70;99.90;;;;;;4995866;28;20400;-47
2020/12/14 08:24:33;;;;;;;18.33;11.05;;;4.70;99.90;;;;;;4995291;28;20194;-55
2020/12/14 08:27:05;;;;;;;19.65;11.25;;;4.70;99.90;;;;;;4995384;28;20203;-48
2020/12/14 08:29:34;;;;;;;16.15;9.13;;;4.70;99.90;;;;;;5012029;28;20689;-46
2020/12/14 08:32:02;;;;;;;16.02;9.45;;;4.70;99.90;;;;;;5016037;28;20182;-47
2020/12/14 08:34:34;;;;;;;15.90;9.85;;;4.90;99.90;;;;;;5015365;28;20266;-49
2020/12/14 08:37:04;;;;;;;20.83;10.90;;;4.90;99.90;;;;;;5015180;28;20206;-46
2020/12/14 08:39:32;;;;;;;16.55;10.70;;;5.00;99.90;;;;;;5005237;28;20347;-46
2020/12/14 08:42:08;;;;;;;11.85;10.48;;;5.00;99.90;;;;;;5000090;28;20195;-46
2020/12/14 08:44:36;;;;;;;17.35;11.48;;;5.00;99.90;;;;;;5007207;28;20252;-46
2020/12/14 08:47:11;;;;;;;15.88;10.25;;;5.10;99.90;;;;;;5006003;28;20270;-47
2020/12/14 08:49:38;;;;;;;21.15;10.43;;;5.10;99.90;;;;;;4984598;28;20198;-48
2020/12/14 08:52:07;;;;;;;13.82;9.73;;;5.20;99.90;;;;;;4996776;28;20662;-48
2020/12/14 08:54:34;;;;;;;18.80;12.52;;;5.30;99.90;;;;;;5007147;28;20191;-51
2020/12/14 08:57:02;;;;;;;17.80;10.27;;;5.30;99.90;;;;;;4994228;28;20210;-52
2020/12/14 08:59:29;;;;;;;12.13;9.10;;;5.40;99.90;;;;;;4994634;28;20218;-48
2020/12/14 09:02:00;;;;;;;17.42;7.07;;;5.50;99.90;;;;;;4976221;28;20179;-50
2020/12/14 09:04:30;;;;;;;13.52;9.93;;;5.50;99.90;;;;;;4994087;28;20573;-49
2020/12/14 09:06:59;;;;;;;15.20;10.95;;;5.60;99.90;;;;;;4994388;28;20619;-51
2020/12/14 09:09:32;;;;;;;16.02;9.55;;;5.70;99.90;;;;;;4993748;28;20191;-49
2020/12/14 09:12:01;;;;;;;18.90;11.68;;;5.70;99.90;;;;;;4984953;23;20232;-81
2020/12/14 09:14:30;;;;;;;14.25;9.77;;;5.70;99.90;;;;;;4965919;28;20207;-80
2020/12/14 09:17:04;;;;;;;12.85;9.52;;;5.70;99.90;;;;;;4985012;28;20172;-82
2020/12/14 09:19:38;;;;;;;13.98;9.50;;;5.80;99.90;;;;;;4984961;28;20227;-86
2020/12/14 09:22:06;;;;;;;13.95;9.65;;;5.90;99.90;;;;;;5003978;28;20305;-84
2020/12/14 09:24:36;;;;;;;12.13;8.90;;;5.90;99.90;;;;;;5006057;28;20377;-82
2020/12/14 09:27:05;;;;;;;11.40;9.07;;;6.00;99.90;;;;;;4971615;28;20215;-82
2020/12/14 09:29:33;;;;;;;17.27;10.65;;;6.00;99.90;;;;;;4988401;28;20191;-83
2020/12/14 09:32:02;;;;;;;14.68;9.18;;;6.10;99.90;;;;;;4970786;28;20267;-85
2020/12/14 09:34:30;;;;;;;13.30;9.13;;;6.20;99.90;;;;;;4971579;28;20194;-85
2020/12/14 09:37:00;;;;;;;12.63;9.93;;;6.30;99.90;;;;;;4971213;28;20247;-83
2020/12/14 09:39:30;;;;;;;14.85;10.40;;;6.30;99.90;;;;;;4988341;28;20199;-85
2020/12/14 09:42:00;;;;;;;11.40;8.60;;;6.30;99.90;;;;;;4988249;28;20231;-83
2020/12/14 09:44:29;;;;;;;11.00;8.95;;;6.30;99.90;;;;;;4988253;28;20202;-81
2020/12/14 09:46:59;;;;;;;21.00;9.88;;;6.30;99.90;;;;;;4989856;28;20259;-81
2020/12/14 09:49:27;;;;;;;12.95;8.75;;;6.30;99.90;;;;;;4991587;28;20215;-81
2020/12/14 09:51:57;;;;;;;13.05;8.63;;;6.30;99.90;;;;;;4993292;28;20251;-83
2020/12/14 09:54:30;;;;;;;12.38;8.27;;;6.30;99.90;;;;;;4996925;28;20199;-80
2020/12/14 09:56:58;;;;;;;16.33;8.63;;;6.40;99.90;;;;;;4995899;28;20207;-80
2020/12/14 09:59:26;;;;;;;11.13;7.32;;;6.50;99.90;;;;;;4997040;28;20206;-80
2020/12/14 10:01:53;;;;;;;9.48;8.35;;;6.40;99.90;;;;;;4994602;28;20212;-80
2020/12/14 10:04:20;;;;;;;14.32;8.10;;;6.50;99.90;;;;;;4994231;28;20203;-81
2020/12/14 10:06:49;;;;;;;10.32;7.70;;;6.60;99.90;;;;;;4994969;28;20211;-81
2020/12/14 10:09:17;;;;;;;9.90;6.65;;;6.70;99.90;;;;;;4992613;28;20179;-81
2020/12/14 10:11:44;;;;;;;10.40;7.43;;;6.80;99.90;;;;;;4991505;28;20215;-81
2020/12/14 10:14:13;;;;;;;12.60;7.28;;;6.90;99.90;;;;;;4990448;28;20279;-80
2020/12/14 10:16:40;;;;;;;13.85;9.07;;;6.90;99.90;;;;;;4986993;28;20294;-84
2020/12/14 10:19:11;;;;;;;11.00;8.20;;;7.00;99.90;;;;;;4992447;28;20207;-81
2020/12/14 10:25:11;;;;;;;11.82;7.15;;;6.90;99.90;;;;;;4978320;28;20212;-80
2020/12/14 10:27:38;;;;;;;10.02;6.78;;;6.90;99.90;;;;;;4991453;28;20254;-79
2020/12/14 10:30:06;;;;;;;13.90;7.55;;;6.80;99.90;;;;;;4993184;28;20238;-80
2020/12/14 10:32:33;;;;;;;12.70;7.72;;;6.90;99.90;;;;;;4993937;28;20184;-80
2020/12/14 10:35:16;;;;;;;8.38;7.57;;;6.90;99.90;;;;;;4991958;28;20179;-83
2020/12/14 10:37:55;;;;;;;15.20;8.32;;;7.00;99.90;;;;;;4991551;28;20221;-82
2020/12/14 10:41:08;;;;;;;14.60;8.93;;;7.00;99.90;;;;;;4990451;28;20302;-84
2020/12/14 10:43:38;;;;;;;10.73;6.78;;;6.90;99.90;;;;;;4914449;29;20221;-83
2020/12/14 10:46:07;;;;;;;13.07;9.35;;;7.00;99.90;;;;;;4947580;29;20303;-81
2020/12/14 10:48:34;;;;;;;15.30;10.25;;;7.00;99.90;;;;;;4958560;29;20208;-82
2020/12/14 10:51:01;;;;;;;10.18;6.90;;;7.00;99.90;;;;;;4975360;29;20585;-82
2020/12/14 10:53:28;;;;;;;12.70;8.23;;;7.00;99.90;;;;;;4957921;29;20208;-83
2020/12/14 10:55:56;;;;;;;16.65;9.27;;;7.10;99.90;;;;;;4987992;28;20207;-83
2020/12/14 10:58:23;;;;;;;14.52;9.13;;;7.10;99.90;;;;;;4991030;28;20215;-82
2020/12/14 11:00:51;;;;;;;12.63;9.07;;;7.20;99.90;;;;;;4986793;28;20234;-81
2020/12/14 11:03:25;;;;;;;13.73;8.27;;;7.20;99.90;;;;;;4987698;28;20336;-83
2020/12/14 11:05:53;;;;;;;11.00;7.53;;;7.40;99.90;;;;;;4990690;28;20215;-83
2020/12/14 11:08:21;;;;;;;13.63;8.75;;;7.50;99.90;;;;;;4994229;28;20183;-81
2020/12/14 11:10:48;;;;;;;17.95;8.27;;;7.70;99.90;;;;;;4994132;28;20211;-83
2020/12/14 11:13:29;;;;;;;11.43;6.70;;;7.70;99.90;;;;;;4987848;28;20187;-84
2020/12/14 11:16:17;;;;;;;13.65;7.53;;;7.70;99.90;;;;;;4980010;28;20175;-83
2020/12/14 11:18:48;;;;;;;9.30;6.70;;;7.70;99.90;;;;;;4983379;28;20266;-83
2020/12/14 11:21:24;;;;;;;10.93;7.85;;;7.70;99.90;;;;;;4982756;28;20221;-84
2020/12/14 11:23:51;;;;;;;9.70;6.57;;;7.80;99.90;;;;;;4983242;28;20273;-81
2020/12/14 11:26:19;;;;;;;11.70;7.28;;;7.90;99.90;;;;;;4987606;28;20211;-82
2020/12/14 11:28:46;;;;;;;8.48;6.75;;;7.90;99.90;;;;;;4993772;28;20188;-81
2020/12/14 11:31:17;;;;;;;13.27;8.00;;;8.00;99.90;;;;;;4996523;28;20234;-80
2020/12/14 11:33:55;;;;;;;8.88;5.60;;;8.10;99.90;;;;;;4998514;28;20183;-79
2020/12/14 11:36:26;;;;;;;10.25;5.07;;;8.10;1.00;;;;;;4994440;28;20206;-78
2020/12/14 11:39:47;;;;;;;12.77;5.47;;;8.20;1.00;;;;;;4989239;28;20215;-82
2020/12/14 11:42:55;;;;;;;8.23;3.88;;;8.20;1.00;;;;;;4951068;28;20187;-81
2020/12/14 11:45:42;;;;;;;4.68;4.28;;;8.30;1.00;;;;;;4998052;28;20179;-83
2020/12/14 11:48:10;;;;;;;11.10;4.88;;;8.40;1.00;;;;;;4996047;28;20221;-80
2020/12/14 11:50:39;;;;;;;6.90;3.58;;;8.60;1.00;;;;;;4994709;28;20219;-78
2020/12/14 11:53:09;;;;;;;7.32;4.60;;;8.60;1.00;;;;;;4992564;28;20261;-81
2020/12/14 11:55:36;;;;;;;8.30;5.50;;;8.50;1.00;;;;;;4981419;28;20525;-82
2020/12/14 12:05:06;;;;;;;6.47;4.00;;;8.30;1.00;;;;;;5004389;28;20205;-80
2020/12/14 12:07:34;;;;;;;6.10;3.97;;;8.20;1.00;;;;;;5016644;28;20221;-80
2020/12/14 12:10:01;;;;;;;8.75;5.40;;;8.10;1.00;;;;;;5003356;28;20178;-80
2020/12/14 12:12:28;;;;;;;8.45;4.85;;;8.00;1.00;;;;;;5015612;28;20214;-80
2020/12/14 12:14:55;;;;;;;8.30;5.90;;;7.90;1.00;;;;;;5023391;28;20189;-81
2020/12/14 12:17:23;;;;;;;8.50;5.15;;;7.90;1.00;;;;;;5021285;28;20202;-79
2020/12/14 12:19:50;;;;;;;8.20;5.15;;;7.80;1.00;;;;;;5004970;28;20252;-80
2020/12/14 12:22:19;;;;;;;7.47;4.50;;;7.90;7.50;;;;;;5022458;28;20546;-79
2020/12/14 12:24:47;;;;;;;9.90;4.93;;;7.90;1.00;;;;;;5022095;28;20186;-80
2020/12/14 12:27:15;;;;;;;7.05;4.72;;;7.90;1.00;;;;;;5039744;28;20953;-79
2020/12/14 12:29:42;;;;;;;8.30;5.38;;;8.00;1.00;;;;;;5024167;28;20193;-78
2020/12/14 12:32:09;;;;;;;4.70;4.28;;;8.20;1.00;;;;;;5043026;28;20237;-80
2020/12/14 12:34:36;;;;;;;6.45;4.53;;;8.20;1.00;;;;;;5035080;28;20284;-80
2020/12/14 12:37:04;;;;;;;10.93;4.43;;;8.20;1.00;;;;;;5040980;28;20198;-79
2020/12/14 12:39:31;;;;;;;8.60;4.82;;;8.20;1.00;;;;;;5030719;28;20238;-79
2020/12/14 12:41:59;;;;;;;9.20;5.45;;;8.30;1.00;;;;;;5028917;28;20239;-79
2020/12/14 12:44:26;;;;;;;7.30;4.78;;;8.30;1.00;;;;;;5027437;28;20197;-82
2020/12/14 12:46:54;;;;;;;9.65;5.35;;;8.30;1.00;;;;;;5026670;28;20197;-81
2020/12/14 12:49:22;;;;;;;11.05;6.00;;;8.30;1.00;;;;;;5069410;23;20241;-53
2020/12/14 12:51:50;;;;;;;5.88;3.83;;;8.30;1.00;;;;;;4991877;28;20213;-55
2020/12/14 12:54:18;;;;;;;13.63;6.97;;;8.20;1.00;;;;;;4976104;28;20202;-51
2020/12/14 12:56:45;;;;;;;6.53;4.80;;;8.20;1.00;;;;;;4993101;28;20217;-56
2020/12/14 12:59:13;;;;;;;9.68;4.60;;;8.10;1.00;;;;;;4993647;28;20175;-57
2020/12/14 13:01:41;;;;;;;12.20;6.00;;;8.20;1.00;;;;;;4993108;28;20194;-50
2020/12/14 13:04:08;;;;;;;13.98;6.75;;;8.20;9.20;;;;;;4993336;28;20243;-53
2020/12/14 13:06:37;;;;;;;6.43;5.13;;;8.30;1.00;;;;;;4993123;28;20210;-55